createdAt,value
2022-10-15T00:00:16.457Z,7.53
2022-10-15T00:03:19.931Z,7.37
2022-10-15T00:06:23.148Z,7.10
2022-10-15T00:09:28.128Z,6.77
2022-10-15T00:12:31.320Z,6.77
2022-10-15T00:15:37.051Z,7.17
2022-10-15T00:18:41.122Z,7.30
2022-10-15T00:21:44.476Z,6.90
2022-10-15T00:24:49.063Z,7.00
2022-10-15T00:27:52.280Z,6.43
2022-10-15T00:31:01.708Z,6.60
2022-10-15T00:34:05.037Z,6.50
2022-10-15T00:37:08.489Z,5.83
2022-10-15T00:40:15.734Z,6.17
2022-10-15T00:43:18.962Z,6.30
2022-10-15T00:46:26.136Z,6.50
2022-10-15T00:49:32.544Z,6.07
2022-10-15T00:52:43.664Z,6.47
2022-10-15T00:55:48.350Z,6.10
2022-10-15T00:58:54.421Z,6.20
2022-10-15T01:01:57.658Z,6.33
2022-10-15T01:05:00.926Z,6.00
2022-10-15T01:08:04.313Z,6.23
2022-10-15T01:11:21.612Z,6.53
2022-10-15T01:14:36.811Z,6.37
2022-10-15T01:17:46.368Z,6.30
2022-10-15T01:20:56.417Z,6.20
2022-10-15T01:24:30.701Z,6.77
2022-10-15T01:27:43.522Z,5.90
2022-10-15T01:30:59.682Z,6.60
2022-10-15T01:34:05.751Z,6.37
2022-10-15T01:37:14.224Z,5.87
2022-10-15T01:40:22.332Z,5.83
2022-10-15T01:43:31.957Z,6.10
2022-10-15T01:46:59.377Z,6.00
2022-10-15T01:50:06.279Z,5.90
2022-10-15T01:53:12.404Z,5.33
2022-10-15T01:56:21.783Z,5.90
2022-10-15T01:59:29.213Z,6.20
2022-10-15T02:02:33.790Z,5.97
2022-10-15T02:05:43.689Z,6.43
2022-10-15T02:08:56.964Z,6.40
2022-10-15T02:12:10.250Z,6.30
2022-10-15T02:15:20.440Z,5.90
2022-10-15T02:18:32.675Z,5.90
2022-10-15T02:21:43.195Z,6.10
2022-10-15T02:24:55.514Z,6.53
2022-10-15T02:28:01.107Z,6.40
2022-10-15T02:31:05.256Z,5.87
2022-10-15T02:34:13.288Z,6.20
2022-10-15T02:37:19.619Z,5.47
2022-10-15T02:40:27.364Z,5.23
2022-10-15T02:43:32.243Z,5.60
2022-10-15T02:46:36.005Z,4.87
2022-10-15T02:49:40.679Z,5.67
2022-10-15T02:52:44.054Z,5.43
2022-10-15T02:55:48.139Z,5.37
2022-10-15T02:58:51.362Z,5.23
2022-10-15T03:01:55.985Z,5.93
2022-10-15T03:05:02.007Z,5.10
2022-10-15T03:08:05.732Z,5.90
2022-10-15T03:11:09.464Z,5.60
2022-10-15T03:14:14.519Z,5.57
2022-10-15T03:17:17.973Z,5.37
2022-10-15T03:20:22.631Z,5.47
2022-10-15T03:23:26.083Z,5.43
2022-10-15T03:26:39.003Z,5.47
2022-10-15T03:29:42.622Z,6.03
2022-10-15T03:32:45.944Z,5.70
2022-10-15T03:35:50.774Z,5.60
2022-10-15T03:38:54.107Z,5.77
2022-10-15T03:41:57.397Z,5.90
2022-10-15T03:45:10.049Z,5.63
2022-10-15T03:48:13.906Z,5.97
2022-10-15T03:51:22.735Z,6.40
2022-10-15T03:54:33.062Z,5.67
2022-10-15T03:57:36.760Z,6.47
2022-10-15T04:00:42.875Z,6.33
2022-10-15T04:03:47.149Z,6.17
2022-10-15T04:06:54.899Z,6.13
2022-10-15T04:09:58.318Z,6.50
2022-10-15T04:13:11.580Z,5.50
2022-10-15T04:16:16.599Z,5.73
2022-10-15T04:19:19.940Z,5.97
2022-10-15T04:22:34.890Z,5.47
2022-10-15T04:25:38.859Z,5.23
2022-10-15T04:28:42.160Z,5.63
2022-10-15T04:31:46.205Z,5.43
2022-10-15T04:34:49.603Z,5.17
2022-10-15T04:37:58.889Z,5.23
2022-10-15T04:41:04.927Z,5.60
2022-10-15T04:44:21.994Z,5.50
2022-10-15T04:47:30.642Z,5.90
2022-10-15T04:50:45.502Z,5.30
2022-10-15T04:53:58.048Z,5.20
2022-10-15T04:57:01.315Z,6.00
2022-10-15T05:00:05.544Z,5.40
2022-10-15T05:03:08.805Z,5.27
2022-10-15T05:06:34.289Z,5.90
2022-10-15T05:09:52.589Z,5.73
2022-10-15T05:12:56.990Z,4.90
2022-10-15T05:16:13.602Z,5.10
2022-10-15T05:19:18.063Z,5.93
2022-10-15T05:22:21.737Z,5.20
2022-10-15T05:25:36.503Z,5.60
2022-10-15T05:28:40.737Z,5.20
2022-10-15T05:31:44.040Z,5.03
2022-10-15T05:34:52.514Z,5.07
2022-10-15T05:37:55.880Z,6.10
2022-10-15T05:41:01.462Z,5.33
2022-10-15T05:44:05.006Z,5.60
2022-10-15T05:47:11.949Z,5.47
2022-10-15T05:50:17.154Z,5.97
2022-10-15T05:53:23.818Z,6.00
2022-10-15T05:56:40.100Z,5.87
2022-10-15T05:59:43.338Z,5.37
2022-10-15T06:02:46.679Z,6.10
2022-10-15T06:05:50.116Z,6.23
2022-10-15T06:08:54.082Z,5.87
2022-10-15T06:11:58.669Z,6.50
2022-10-15T06:15:01.894Z,7.07
2022-10-15T06:18:05.341Z,6.13
2022-10-15T06:21:09.012Z,6.93
2022-10-15T06:24:12.658Z,6.13
2022-10-15T06:27:17.326Z,5.53
2022-10-15T06:30:21.387Z,5.80
2022-10-15T06:33:24.635Z,5.50
2022-10-15T06:36:27.821Z,5.20
2022-10-15T06:39:32.556Z,5.43
2022-10-15T06:42:37.291Z,5.77
2022-10-15T06:45:42.662Z,5.97
2022-10-15T06:48:53.132Z,5.63
2022-10-15T06:52:01.022Z,5.47
2022-10-15T06:55:07.893Z,6.27
2022-10-15T06:58:12.558Z,6.47
2022-10-15T07:01:15.762Z,6.33
2022-10-15T07:04:18.935Z,6.17
2022-10-15T07:07:22.193Z,6.47
2022-10-15T07:10:26.695Z,5.20
2022-10-15T07:13:32.035Z,5.37
2022-10-15T07:16:39.472Z,5.53
2022-10-15T07:19:42.671Z,5.10
2022-10-15T07:22:45.972Z,5.13
2022-10-15T07:25:49.171Z,5.60
2022-10-15T07:28:53.822Z,5.67
2022-10-15T07:31:57.121Z,6.17
2022-10-15T07:35:00.304Z,6.57
2022-10-15T07:38:04.663Z,6.03
2022-10-15T07:41:09.082Z,5.33
2022-10-15T07:44:19.976Z,4.83
2022-10-15T07:47:23.549Z,4.53
2022-10-15T07:50:29.307Z,4.37
2022-10-15T07:53:37.028Z,4.77
2022-10-15T07:56:40.713Z,4.93
2022-10-15T07:59:45.299Z,4.40
2022-10-15T08:02:48.614Z,4.80
2022-10-15T08:05:56.344Z,4.63
2022-10-15T08:09:00.667Z,4.70
2022-10-15T08:12:07.157Z,4.80
2022-10-15T08:15:12.449Z,4.47
2022-10-15T08:18:15.827Z,4.90
2022-10-15T08:21:19.046Z,4.93
2022-10-15T08:24:22.302Z,4.33
2022-10-15T08:27:25.538Z,3.63
2022-10-15T08:30:34.806Z,3.80
2022-10-15T08:33:46.543Z,4.03
2022-10-15T08:36:49.715Z,4.03
2022-10-15T08:39:52.923Z,4.53
2022-10-15T08:42:56.908Z,4.45
2022-10-15T08:46:05.178Z,4.25
2022-10-15T08:49:13.987Z,4.05
2022-10-15T08:52:24.135Z,3.78
2022-10-15T08:55:35.804Z,3.65
2022-10-15T08:58:50.163Z,3.20
2022-10-15T09:02:00.220Z,3.45
2022-10-15T09:05:17.097Z,3.53
2022-10-15T09:08:26.649Z,3.10
2022-10-15T09:11:42.435Z,3.88
2022-10-15T09:14:48.953Z,2.95
2022-10-15T09:17:55.434Z,3.30
2022-10-15T09:21:03.623Z,3.85
2022-10-15T09:24:07.611Z,3.20
2022-10-15T09:27:17.423Z,3.80
2022-10-15T09:30:34.910Z,4.22
2022-10-15T09:33:44.887Z,4.68
2022-10-15T09:36:54.292Z,4.18
2022-10-15T09:40:23.538Z,4.45
2022-10-15T09:43:35.132Z,6.95
2022-10-15T09:46:45.322Z,4.03
2022-10-15T09:49:50.018Z,3.88
2022-10-15T09:53:11.327Z,3.70
2022-10-15T09:56:19.571Z,3.35
2022-10-15T09:59:24.878Z,3.10
2022-10-15T10:02:29.460Z,3.35
2022-10-15T10:05:38.135Z,3.20
2022-10-15T10:12:01.253Z,3.60
2022-10-15T10:15:08.740Z,16.30
2022-10-15T10:18:20.312Z,3.35
2022-10-15T10:21:27.712Z,3.38
2022-10-15T10:24:34.513Z,3.75
2022-10-15T10:27:37.770Z,3.00
2022-10-15T10:30:50.412Z,6.65
2022-10-15T10:33:53.831Z,6.43
2022-10-15T10:36:58.617Z,4.63
2022-10-15T10:40:02.380Z,3.47
2022-10-15T10:43:18.055Z,3.03
2022-10-15T10:46:24.420Z,2.80
2022-10-15T10:49:32.843Z,3.72
2022-10-15T10:52:39.055Z,3.95
2022-10-15T10:55:43.419Z,3.13
2022-10-15T10:58:53.814Z,3.15
2022-10-15T11:01:57.903Z,2.90
2022-10-15T11:05:01.137Z,3.10
2022-10-15T11:08:19.834Z,2.88
2022-10-15T11:11:31.516Z,2.92
2022-10-15T11:14:46.492Z,3.03
2022-10-15T11:17:59.093Z,2.60
2022-10-15T11:21:13.633Z,3.80
2022-10-15T11:24:25.978Z,2.63
2022-10-15T11:27:45.946Z,2.63
2022-10-15T11:30:56.195Z,2.58
2022-10-15T11:34:15.820Z,3.45
2022-10-15T11:37:35.229Z,4.75
2022-10-15T11:40:52.737Z,3.00
2022-10-15T11:44:09.677Z,2.92
2022-10-15T11:47:27.290Z,3.00
2022-10-15T11:50:34.326Z,2.97
2022-10-15T11:54:09.686Z,2.80
2022-10-15T11:57:20.207Z,3.20
2022-10-15T12:00:33.858Z,2.92
2022-10-15T12:03:42.128Z,2.85
2022-10-15T12:06:48.877Z,2.60
2022-10-15T12:09:55.729Z,2.92
2022-10-15T12:13:07.249Z,3.22
2022-10-15T12:16:21.611Z,3.58
2022-10-15T12:19:29.979Z,4.78
2022-10-15T12:22:37.837Z,3.17
2022-10-15T12:25:46.502Z,3.25
2022-10-15T12:28:53.430Z,3.25
2022-10-15T12:31:57.262Z,2.95
2022-10-15T12:35:06.010Z,3.30
2022-10-15T12:38:28.974Z,3.20
2022-10-15T12:41:38.563Z,3.17
2022-10-15T12:44:50.016Z,4.78
2022-10-15T12:47:56.085Z,3.10
2022-10-15T12:51:38.828Z,2.80
2022-10-15T12:54:43.471Z,3.25
2022-10-15T12:58:02.913Z,2.85
2022-10-15T13:01:28.242Z,2.83
2022-10-15T13:04:39.930Z,2.50
2022-10-15T13:07:48.621Z,2.40
2022-10-15T13:10:55.862Z,2.60
2022-10-15T13:14:02.676Z,2.40
2022-10-15T13:17:16.477Z,2.80
2022-10-15T13:20:34.686Z,3.38
2022-10-15T13:23:38.340Z,2.67
2022-10-15T13:26:42.025Z,2.97
2022-10-15T13:29:56.194Z,2.50
2022-10-15T13:33:01.237Z,2.83
2022-10-15T13:36:08.886Z,2.83
2022-10-15T13:39:30.374Z,2.65
2022-10-15T13:42:33.650Z,2.80
2022-10-15T13:45:37.472Z,3.05
2022-10-15T13:56:49.485Z,3.00
2022-10-15T13:59:54.230Z,3.72
2022-10-15T14:03:19.346Z,2.72
2022-10-15T14:06:25.898Z,2.83
2022-10-15T14:09:33.230Z,3.15
2022-10-15T14:12:36.489Z,3.00
2022-10-15T14:15:42.559Z,2.97
2022-10-15T14:18:49.393Z,2.92
2022-10-15T14:21:54.430Z,3.63
2022-10-15T14:24:58.291Z,3.05
2022-10-15T14:28:11.374Z,2.88
2022-10-15T14:31:31.236Z,3.22
2022-10-15T14:34:39.772Z,3.17
2022-10-15T14:37:44.399Z,3.42
2022-10-15T14:40:58.375Z,3.90
2022-10-15T14:44:04.392Z,5.05
2022-10-15T14:47:11.650Z,3.70
2022-10-15T14:50:14.933Z,3.88
2022-10-15T14:53:21.966Z,3.53
2022-10-15T14:56:31.288Z,3.35
2022-10-15T14:59:38.608Z,4.00
2022-10-15T15:02:42.305Z,4.13
2022-10-15T15:05:47.269Z,2.97
2022-10-15T15:08:52.141Z,3.22
2022-10-15T15:11:55.430Z,3.22
2022-10-15T15:14:59.163Z,3.20
2022-10-15T15:18:02.416Z,3.13
2022-10-15T15:21:08.901Z,4.45
2022-10-15T15:24:13.571Z,3.40
2022-10-15T15:27:26.242Z,3.35
2022-10-15T15:30:32.864Z,3.42
2022-10-15T15:33:36.546Z,3.22
2022-10-15T15:36:40.214Z,3.20
2022-10-15T15:39:44.927Z,2.80
2022-10-15T15:42:49.109Z,3.20
2022-10-15T15:45:52.383Z,3.22
2022-10-15T15:48:57.096Z,3.33
2022-10-15T15:52:00.447Z,3.30
2022-10-15T15:55:05.776Z,3.13
2022-10-15T15:58:09.039Z,2.90
2022-10-15T16:01:12.400Z,2.60
2022-10-15T16:04:15.822Z,3.75
2022-10-15T16:07:19.652Z,4.10
2022-10-15T16:10:24.861Z,5.07
2022-10-15T16:13:28.069Z,4.03
2022-10-15T16:16:31.257Z,4.07
2022-10-15T16:19:34.779Z,4.57
2022-10-15T16:22:38.002Z,5.13
2022-10-15T16:25:42.541Z,5.07
2022-10-15T16:28:45.877Z,4.17
2022-10-15T16:31:49.354Z,4.27
2022-10-15T16:34:52.555Z,4.33
2022-10-15T16:37:56.321Z,4.30
2022-10-15T16:41:01.995Z,4.93
2022-10-15T16:44:05.521Z,5.00
2022-10-15T16:47:08.786Z,4.33
2022-10-15T16:50:12.021Z,4.73
2022-10-15T16:53:15.348Z,4.30
2022-10-15T16:56:22.727Z,4.80
2022-10-15T16:59:26.046Z,4.20
2022-10-15T17:02:29.308Z,4.80
2022-10-15T17:05:32.891Z,4.33
2022-10-15T17:08:40.063Z,4.23
2022-10-15T17:11:46.968Z,4.60
2022-10-15T17:14:52.213Z,5.50
2022-10-15T17:17:55.414Z,4.10
2022-10-15T17:20:58.656Z,4.27
2022-10-15T17:24:04.391Z,5.20
2022-10-15T17:27:09.066Z,5.27
2022-10-15T17:30:12.775Z,6.97
2022-10-15T17:33:16.031Z,6.23
2022-10-15T17:36:21.080Z,5.13
2022-10-15T17:39:24.995Z,4.73
2022-10-15T17:42:29.660Z,4.67
2022-10-15T17:45:33.757Z,4.20
2022-10-15T17:48:38.135Z,4.17
2022-10-15T17:51:41.356Z,4.40
2022-10-15T17:54:45.240Z,4.13
2022-10-15T17:57:49.907Z,4.40
2022-10-15T18:00:55.215Z,3.90
2022-10-15T18:03:58.476Z,3.90
2022-10-15T18:07:01.736Z,3.73
2022-10-15T18:10:05.314Z,3.83
2022-10-15T18:13:09.992Z,3.90
2022-10-15T18:16:13.424Z,4.77
2022-10-15T18:19:16.630Z,5.30
2022-10-15T18:22:20.537Z,5.90
2022-10-15T18:25:23.809Z,4.83
2022-10-15T18:28:28.480Z,6.10
2022-10-15T18:31:31.787Z,5.20
2022-10-15T18:34:35.358Z,5.03
2022-10-15T18:37:38.509Z,5.07
2022-10-15T18:40:41.925Z,4.20
2022-10-15T18:43:51.037Z,4.43
2022-10-15T18:46:54.282Z,4.47
2022-10-15T18:49:57.458Z,4.47
2022-10-15T18:53:03.196Z,4.77
2022-10-15T18:56:07.592Z,5.23
2022-10-15T18:59:12.217Z,4.03
2022-10-15T19:02:15.583Z,6.20
2022-10-15T19:05:19.091Z,4.37
2022-10-15T19:08:22.287Z,3.93
2022-10-15T19:11:26.515Z,5.73
2022-10-15T19:14:31.373Z,4.40
2022-10-15T19:17:34.686Z,4.03
2022-10-15T19:20:39.642Z,4.17
2022-10-15T19:23:43.799Z,3.50
2022-10-15T19:26:49.018Z,4.60
2022-10-15T19:29:53.619Z,3.60
2022-10-15T19:32:56.898Z,3.83
2022-10-15T19:36:00.792Z,4.83
2022-10-15T19:39:07.168Z,4.33
2022-10-15T19:42:10.864Z,4.40
2022-10-15T19:48:24.829Z,4.13
2022-10-15T19:51:28.170Z,4.27
2022-10-15T19:54:31.426Z,4.00
2022-10-15T19:57:34.654Z,4.30
2022-10-15T20:00:39.426Z,4.20
2022-10-15T20:03:42.705Z,4.13
2022-10-15T20:06:46.172Z,4.10
2022-10-15T20:09:49.439Z,4.60
2022-10-15T20:12:52.607Z,5.07
2022-10-15T20:15:57.258Z,4.33
2022-10-15T20:19:02.488Z,4.47
2022-10-15T20:22:05.758Z,5.07
2022-10-15T20:25:09.637Z,4.50
2022-10-15T20:28:13.853Z,4.80
2022-10-15T20:31:21.650Z,5.00
2022-10-15T20:34:25.446Z,4.07
2022-10-15T20:37:28.740Z,4.93
2022-10-15T20:40:32.134Z,4.30
2022-10-15T20:43:35.410Z,4.10
2022-10-15T20:46:44.994Z,4.20
2022-10-15T20:49:51.994Z,4.07
2022-10-15T20:52:57.081Z,3.70
2022-10-15T20:56:01.538Z,3.90
2022-10-15T20:59:05.235Z,4.03
2022-10-15T21:02:10.017Z,4.20
2022-10-15T21:05:13.184Z,4.50
2022-10-15T21:08:16.447Z,4.60
2022-10-15T21:11:19.685Z,4.27
2022-10-15T21:14:23.038Z,4.13
2022-10-15T21:17:28.117Z,4.17
2022-10-15T21:20:31.529Z,4.93
2022-10-15T21:23:35.338Z,4.53
2022-10-15T21:26:38.557Z,4.70
2022-10-15T21:29:42.643Z,4.60
2022-10-15T21:32:47.291Z,4.20
2022-10-15T21:35:50.566Z,4.40
2022-10-15T21:38:55.105Z,4.73
2022-10-15T21:41:58.478Z,5.37
2022-10-15T21:45:01.651Z,5.60
2022-10-15T21:48:06.875Z,4.53
2022-10-15T21:51:12.625Z,4.97
2022-10-15T21:54:15.830Z,4.67
2022-10-15T21:57:19.082Z,4.80
2022-10-15T22:00:22.331Z,4.87
2022-10-15T22:03:27.012Z,4.53
2022-10-15T22:06:32.073Z,4.97
2022-10-15T22:09:35.445Z,4.67
2022-10-15T22:12:38.642Z,4.47
2022-10-15T22:15:41.999Z,5.27
2022-10-15T22:18:47.176Z,5.00
2022-10-15T22:21:50.427Z,4.87
2022-10-15T22:24:54.649Z,5.17
2022-10-15T22:27:57.882Z,5.10
2022-10-15T22:31:04.772Z,4.70
2022-10-15T22:34:09.407Z,5.60
2022-10-15T22:37:12.640Z,5.33
2022-10-15T22:40:16.013Z,5.30
2022-10-15T22:43:19.289Z,6.43
2022-10-15T22:46:22.420Z,6.27
2022-10-15T22:49:27.248Z,5.77
2022-10-15T22:52:30.479Z,4.90
2022-10-15T22:55:33.761Z,4.87
2022-10-15T22:58:37.756Z,4.43
2022-10-15T23:01:41.105Z,4.67
2022-10-15T23:04:45.811Z,4.77
2022-10-15T23:07:49.125Z,4.90
2022-10-15T23:10:52.381Z,4.80
2022-10-15T23:13:57.522Z,5.20
2022-10-15T23:17:00.684Z,5.17
2022-10-15T23:20:05.920Z,5.00
2022-10-15T23:23:09.137Z,4.90
2022-10-15T23:26:14.548Z,5.60
2022-10-15T23:29:20.462Z,5.40
2022-10-15T23:32:24.139Z,5.60
2022-10-15T23:35:28.868Z,6.17
2022-10-15T23:38:32.500Z,5.30
2022-10-15T23:41:35.778Z,6.00
2022-10-15T23:47:42.071Z,5.60
2022-10-15T23:50:46.614Z,5.63
2022-10-15T23:53:50.513Z,5.83
2022-10-15T23:56:53.764Z,6.63
2022-10-15T23:59:57.026Z,5.67
